Time;durP1;ratioP1;P1;durP2;ratioP2;P2;SDS_P1;SDS_P2;PMS_P1;PMS_P2;Temp;Humidity;BMP_temperature;BMP_pressure;BME280_temperature;BME280_humidity;BME280_pressure;Samples;Min_cycle;Max_cycle;Signal;HPM_P1;HPM_P2
2021/12/04 00:02:38;;;;;;;13.87;7.03;;;;;;;;;;6276379;22;20193;-93
2021/12/04 00:05:08;;;;;;;20.13;8.97;;;;;;;;;;6276323;22;20172;-93
2021/12/04 00:07:37;;;;;;;18.17;9.10;;;;;;;;;;6275282;22;20247;-93
2021/12/04 00:10:04;;;;;;;10.00;5.40;;;;;;;;;;6276250;22;20203;-93
2021/12/04 00:12:33;;;;;;;7.70;4.70;;;;;;;;;;6276611;22;20173;-93
2021/12/04 00:15:00;;;;;;;8.57;4.37;;;;;;;;;;6275350;22;20236;-93
2021/12/04 00:17:28;;;;;;;6.10;4.47;;;;;;;;;;6275987;22;20200;-93
2021/12/04 00:19:55;;;;;;;7.70;4.40;;;;;;;;;;6276418;22;20203;-92
2021/12/04 00:22:24;;;;;;;7.17;4.47;;;;;;;;;;6275629;22;20572;-92
2021/12/04 00:24:52;;;;;;;7.63;4.80;;;;;;;;;;6276088;22;20177;-92
2021/12/04 00:27:19;;;;;;;7.80;4.87;;;;;;;;;;6276087;22;20539;-93
2021/12/04 00:29:46;;;;;;;7.10;4.83;;;;;;;;;;6276427;22;20274;-92
2021/12/04 00:32:15;;;;;;;6.80;5.30;;;;;;;;;;6275361;22;20177;-93
2021/12/04 00:34:46;;;;;;;8.40;5.33;;;;;;;;;;6276025;22;20643;-93
2021/12/04 00:37:34;;;;;;;7.20;5.23;;;;;;;;;;6276322;22;20169;-93
2021/12/04 00:51:10;;;;;;;7.80;4.67;;;;;;;;;;6275735;22;20155;-93
2021/12/04 00:53:38;;;;;;;8.03;4.70;;;;;;;;;;6275450;22;20222;-93
2021/12/04 00:56:07;;;;;;;13.67;7.20;;;;;;;;;;6275274;22;20246;-92
2021/12/04 00:58:34;;;;;;;11.83;6.33;;;;;;;;;;6276120;22;20200;-93
2021/12/04 01:01:01;;;;;;;7.13;4.47;;;;;;;;;;6275001;22;20172;-92
2021/12/04 01:03:29;;;;;;;7.37;5.10;;;;;;;;;;6275732;22;20196;-92
2021/12/04 01:05:56;;;;;;;6.30;4.57;;;;;;;;;;6275918;22;20230;-93
2021/12/04 01:08:23;;;;;;;5.07;4.03;;;;;;;;;;6274693;22;20345;-93
2021/12/04 01:10:51;;;;;;;6.73;4.57;;;;;;;;;;6275472;22;20550;-93
2021/12/04 01:13:20;;;;;;;8.40;5.07;;;;;;;;;;6275818;22;20187;-93
2021/12/04 01:15:48;;;;;;;7.83;4.17;;;;;;;;;;6276223;22;20183;-93
2021/12/04 01:18:15;;;;;;;6.70;4.33;;;;;;;;;;6274627;22;20514;-93
2021/12/04 01:20:42;;;;;;;9.07;4.90;;;;;;;;;;6275318;22;20230;-93
2021/12/04 01:23:10;;;;;;;5.93;4.40;;;;;;;;;;6275957;22;20196;-93
2021/12/04 01:25:39;;;;;;;5.43;4.60;;;;;;;;;;6275657;22;20180;-93
2021/12/04 01:28:06;;;;;;;6.73;4.43;;;;;;;;;;6274696;22;20195;-92
2021/12/04 01:30:35;;;;;;;7.20;4.13;;;;;;;;;;6275562;22;20172;-92
2021/12/04 01:33:03;;;;;;;5.57;3.93;;;;;;;;;;6275730;22;20176;-93
2021/12/04 01:35:30;;;;;;;7.97;3.87;;;;;;;;;;6276020;22;20180;-92
2021/12/04 01:37:57;;;;;;;6.70;4.37;;;;;;;;;;6273818;22;20181;-92
2021/12/04 01:40:26;;;;;;;5.47;3.83;;;;;;;;;;6275829;22;20176;-93
2021/12/04 01:42:53;;;;;;;6.83;4.27;;;;;;;;;;6275385;22;20196;-93
2021/12/04 01:45:21;;;;;;;6.20;3.93;;;;;;;;;;6275999;22;20177;-93
2021/12/04 01:47:49;;;;;;;7.10;4.50;;;;;;;;;;6274303;22;20223;-92
2021/12/04 01:50:17;;;;;;;6.73;4.13;;;;;;;;;;6275730;22;20227;-93
2021/12/04 01:52:44;;;;;;;5.57;4.00;;;;;;;;;;6275733;22;20203;-93
2021/12/04 01:55:11;;;;;;;6.10;4.10;;;;;;;;;;6274801;22;20238;-93
2021/12/04 01:57:39;;;;;;;5.70;3.97;;;;;;;;;;6275445;22;20168;-93
2021/12/04 02:00:08;;;;;;;5.67;4.10;;;;;;;;;;6275336;22;20200;-93
2021/12/04 02:02:35;;;;;;;7.93;4.83;;;;;;;;;;6274074;22;20564;-93
2021/12/04 02:05:04;;;;;;;4.57;3.77;;;;;;;;;;6275016;22;20623;-91
2021/12/04 02:07:32;;;;;;;5.47;4.10;;;;;;;;;;6275567;22;20222;-93
2021/12/04 02:09:59;;;;;;;7.30;4.80;;;;;;;;;;6274978;22;20193;-92
2021/12/04 02:12:26;;;;;;;3.73;3.07;;;;;;;;;;6275444;22;20238;-93
2021/12/04 02:14:54;;;;;;;4.97;4.00;;;;;;;;;;6275457;22;20543;-94
2021/12/04 02:17:21;;;;;;;5.83;3.80;;;;;;;;;;6275588;22;20226;-94
2021/12/04 02:19:48;;;;;;;5.00;4.00;;;;;;;;;;6274011;22;20591;-93
2021/12/04 02:22:17;;;;;;;6.33;3.80;;;;;;;;;;6275474;22;20197;-93
2021/12/04 02:24:45;;;;;;;7.10;3.80;;;;;;;;;;6275901;22;20231;-93
2021/12/04 02:27:13;;;;;;;5.73;3.40;;;;;;;;;;6275139;22;20181;-93
2021/12/04 02:29:46;;;;;;;4.77;3.63;;;;;;;;;;6275623;22;20227;-92
2021/12/04 02:32:14;;;;;;;3.77;3.23;;;;;;;;;;6276231;22;20262;-94
2021/12/04 02:34:42;;;;;;;6.87;3.87;;;;;;;;;;6276224;22;20242;-94
2021/12/04 02:37:10;;;;;;;4.23;3.13;;;;;;;;;;6275789;22;20627;-93
2021/12/04 02:39:43;;;;;;;5.43;2.97;;;;;;;;;;6277620;22;20201;-93
2021/12/04 02:42:19;;;;;;;6.40;3.73;;;;;;;;;;6277938;22;20165;-94
2021/12/04 02:44:48;;;;;;;5.20;4.07;;;;;;;;;;6276082;22;20172;-93
2021/12/04 02:47:15;;;;;;;6.37;3.80;;;;;;;;;;6277402;22;20177;-93
2021/12/04 02:49:43;;;;;;;5.90;3.67;;;;;;;;;;6277509;22;20196;-94
2021/12/04 02:52:11;;;;;;;5.57;3.30;;;;;;;;;;6276836;22;20226;-93
2021/12/04 02:54:40;;;;;;;3.77;3.33;;;;;;;;;;6277216;22;20606;-93
2021/12/04 02:57:08;;;;;;;4.37;3.27;;;;;;;;;;6276914;22;20189;-94
2021/12/04 02:59:37;;;;;;;4.43;3.53;;;;;;;;;;6277291;22;20197;-93
2021/12/04 03:02:05;;;;;;;6.07;3.63;;;;;;;;;;6276809;22;20183;-94
2021/12/04 03:04:33;;;;;;;3.63;3.07;;;;;;;;;;6274885;22;20176;-93
2021/12/04 03:07:00;;;;;;;5.20;3.43;;;;;;;;;;6274845;22;20234;-93
2021/12/04 03:09:28;;;;;;;4.30;3.50;;;;;;;;;;6276746;22;20541;-93
2021/12/04 03:11:57;;;;;;;4.63;3.33;;;;;;;;;;6277512;22;20177;-92
2021/12/04 03:14:25;;;;;;;5.27;2.90;;;;;;;;;;6277486;22;20195;-93
2021/12/04 03:16:52;;;;;;;5.87;3.53;;;;;;;;;;6276028;22;20203;-93
2021/12/04 03:19:20;;;;;;;3.63;2.87;;;;;;;;;;6277184;22;20222;-93
2021/12/04 03:21:47;;;;;;;3.50;2.70;;;;;;;;;;6277516;22;20216;-94
2021/12/04 03:24:16;;;;;;;4.97;3.33;;;;;;;;;;6276285;22;20196;-92
2021/12/04 03:26:45;;;;;;;4.20;3.00;;;;;;;;;;6277139;22;20173;-94
2021/12/04 03:29:17;;;;;;;3.97;3.23;;;;;;;;;;6276958;22;20531;-93
2021/12/04 03:32:06;;;;;;;3.07;2.50;;;;;;;;;;6276735;22;20179;-93
2021/12/04 03:40:11;;;;;;;3.20;2.70;;;;;;;;;;6276617;22;20520;-94
2021/12/04 03:42:40;;;;;;;4.43;3.07;;;;;;;;;;6276906;22;20730;-93
2021/12/04 03:45:10;;;;;;;6.07;2.70;;;;;;;;;;6277340;22;20177;-94
2021/12/04 03:47:43;;;;;;;3.40;2.60;;;;;;;;;;6276662;22;20176;-93
2021/12/04 03:50:11;;;;;;;3.10;2.80;;;;;;;;;;6276359;22;20215;-93
2021/12/04 03:52:38;;;;;;;3.80;2.60;;;;;;;;;;6277252;22;20176;-93
2021/12/04 03:55:07;;;;;;;3.10;2.80;;;;;;;;;;6277497;22;20180;-94
2021/12/04 03:57:34;;;;;;;2.87;2.57;;;;;;;;;;6276807;22;20169;-93
2021/12/04 04:00:02;;;;;;;4.80;2.77;;;;;;;;;;6276114;22;20231;-93
2021/12/04 04:02:31;;;;;;;5.10;3.10;;;;;;;;;;6277515;22;20199;-94
2021/12/04 04:04:58;;;;;;;3.40;3.00;;;;;;;;;;6277760;22;20183;-94
2021/12/04 04:07:25;;;;;;;4.33;3.17;;;;;;;;;;6276823;22;20234;-93
2021/12/04 04:09:53;;;;;;;4.97;3.07;;;;;;;;;;6275095;22;20197;-94
2021/12/04 04:12:20;;;;;;;4.30;2.97;;;;;;;;;;6277095;22;20188;-93
2021/12/04 04:14:47;;;;;;;4.90;3.37;;;;;;;;;;6277151;22;20172;-94
2021/12/04 04:17:15;;;;;;;2.97;2.47;;;;;;;;;;6276856;22;20257;-93
2021/12/04 04:19:43;;;;;;;3.70;3.37;;;;;;;;;;6275986;22;20250;-93
2021/12/04 04:22:11;;;;;;;4.93;3.00;;;;;;;;;;6277266;22;20177;-93
2021/12/04 04:24:38;;;;;;;5.57;3.23;;;;;;;;;;6277324;22;20246;-94
2021/12/04 04:27:06;;;;;;;4.63;3.47;;;;;;;;;;6276209;22;20208;-94
2021/12/04 04:29:33;;;;;;;4.00;3.03;;;;;;;;;;6276974;22;20193;-95
2021/12/04 04:32:00;;;;;;;3.93;2.80;;;;;;;;;;6277333;22;20177;-94
2021/12/04 04:34:30;;;;;;;3.43;2.90;;;;;;;;;;6277030;22;20173;-93
2021/12/04 04:37:15;;;;;;;4.30;3.50;;;;;;;;;;6276085;22;20612;-94
2021/12/04 04:59:33;;;;;;;4.20;3.33;;;;;;;;;;6277713;22;20207;-94
2021/12/04 05:11:03;;;;;;;3.43;3.03;;;;;;;;;;6278578;22;20485;-94
2021/12/04 05:13:31;;;;;;;4.40;2.80;;;;;;;;;;6278436;22;20223;-94
2021/12/04 05:15:59;;;;;;;5.60;3.00;;;;;;;;;;6278799;22;20176;-92
2021/12/04 05:18:37;;;;;;;3.00;2.73;;;;;;;;;;6279036;22;20246;-95
2021/12/04 05:21:05;;;;;;;5.10;3.37;;;;;;;;;;6279532;22;20220;-94
2021/12/04 05:23:33;;;;;;;4.53;3.00;;;;;;;;;;6279759;22;20196;-94
2021/12/04 05:26:02;;;;;;;4.87;3.73;;;;;;;;;;6279840;22;20665;-94
2021/12/04 05:28:30;;;;;;;3.90;3.17;;;;;;;;;;6279447;22;20196;-95
2021/12/04 05:30:57;;;;;;;3.43;2.70;;;;;;;;;;6280182;22;20176;-94
2021/12/04 05:33:24;;;;;;;4.50;2.70;;;;;;;;;;6280194;22;20172;-94
2021/12/04 05:35:52;;;;;;;5.43;2.60;;;;;;;;;;6280513;22;20173;-94
2021/12/04 05:38:20;;;;;;;2.93;2.50;;;;;;;;;;6280365;22;20229;-94
2021/12/04 05:40:48;;;;;;;11.83;7.57;;;;;;;;;;6280447;22;20659;-95
2021/12/04 05:43:19;;;;;;;3.37;2.90;;;;;;;;;;6280776;22;20197;-94
2021/12/04 05:45:51;;;;;;;3.37;2.50;;;;;;;;;;6281307;22;20176;-94
2021/12/04 05:48:24;;;;;;;5.33;3.20;;;;;;;;;;6281107;22;20193;-95
2021/12/04 05:51:15;;;;;;;4.60;3.73;;;;;;;;;;6280342;22;20179;-95
2021/12/04 05:53:55;;;;;;;5.63;4.87;;;;;;;;;;6280151;22;20630;-95
2021/12/04 05:56:23;;;;;;;4.40;3.20;;;;;;;;;;6281359;22;20255;-94
2021/12/04 05:58:52;;;;;;;4.80;3.20;;;;;;;;;;6280943;22;20193;-95
2021/12/04 06:01:20;;;;;;;3.50;2.63;;;;;;;;;;6280536;22;20177;-94
2021/12/04 06:03:48;;;;;;;3.37;3.07;;;;;;;;;;6280077;22;20262;-93
2021/12/04 06:06:16;;;;;;;6.07;3.53;;;;;;;;;;6280592;22;20172;-94
2021/12/04 06:08:43;;;;;;;4.73;3.30;;;;;;;;;;6280753;22;20533;-94
2021/12/04 06:11:10;;;;;;;3.50;2.80;;;;;;;;;;6281560;22;20176;-94
2021/12/04 06:13:38;;;;;;;3.80;2.70;;;;;;;;;;6282416;22;20223;-95
2021/12/04 06:16:07;;;;;;;4.07;2.73;;;;;;;;;;6283608;22;20177;-95
2021/12/04 06:18:34;;;;;;;6.63;3.10;;;;;;;;;;6285237;22;20226;-94
2021/12/04 06:23:46;;;;;;;2.57;2.37;;;;;;;;;;6284535;22;20216;-95
2021/12/04 06:26:14;;;;;;;3.70;2.93;;;;;;;;;;6285423;22;20184;-94
2021/12/04 06:28:42;;;;;;;3.53;3.10;;;;;;;;;;6285017;22;20197;-94
2021/12/04 06:31:11;;;;;;;3.93;3.03;;;;;;;;;;6290037;22;20177;-94
2021/12/04 06:33:40;;;;;;;3.30;3.00;;;;;;;;;;6283967;22;20168;-95
2021/12/04 06:36:07;;;;;;;3.83;3.03;;;;;;;;;;6283163;22;20200;-94
2021/12/04 06:38:35;;;;;;;6.37;3.13;;;;;;;;;;6281677;22;20265;-94
2021/12/04 06:41:03;;;;;;;3.97;3.00;;;;;;;;;;6282010;22;20702;-95
2021/12/04 06:43:30;;;;;;;4.27;2.73;;;;;;;;;;6290692;22;20196;-94
2021/12/04 06:45:59;;;;;;;3.97;2.80;;;;;;;;;;6282169;22;20188;-94
2021/12/04 06:48:36;;;;;;;3.37;2.80;;;;;;;;;;6281468;22;20196;-95
2021/12/04 06:51:07;;;;;;;3.30;2.87;;;;;;;;;;6281984;22;20168;-94
2021/12/04 06:53:39;;;;;;;4.57;4.03;;;;;;;;;;6282586;22;20704;-95
2021/12/04 06:56:08;;;;;;;3.20;2.90;;;;;;;;;;6281796;22;20212;-94
2021/12/04 06:58:36;;;;;;;4.27;3.17;;;;;;;;;;6283106;22;20197;-94
2021/12/04 07:01:04;;;;;;;3.97;3.00;;;;;;;;;;6284655;22;20232;-95
2021/12/04 07:03:33;;;;;;;5.40;3.93;;;;;;;;;;6282817;22;20214;-94
2021/12/04 07:06:00;;;;;;;4.93;3.40;;;;;;;;;;6283123;22;20181;-94
2021/12/04 07:08:27;;;;;;;7.07;4.73;;;;;;;;;;6282737;22;20201;-94
2021/12/04 07:11:07;;;;;;;4.20;3.13;;;;;;;;;;6285096;22;20176;-95
2021/12/04 07:13:35;;;;;;;4.50;3.17;;;;;;;;;;6285247;22;20165;-95
2021/12/04 07:16:04;;;;;;;3.93;3.30;;;;;;;;;;6284434;22;20165;-93
2021/12/04 07:18:34;;;;;;;4.40;3.20;;;;;;;;;;6284443;22;20197;-95
2021/12/04 07:21:02;;;;;;;5.43;3.30;;;;;;;;;;6283403;22;20168;-95
2021/12/04 07:23:29;;;;;;;2.23;1.97;;;;;;;;;;6295628;22;20160;-93
2021/12/04 07:25:57;;;;;;;2.70;2.37;;;;;;;;;;6305194;22;20173;-93
2021/12/04 07:28:24;;;;;;;4.50;3.00;;;;;;;;;;6299318;22;20189;-95
2021/12/04 07:30:53;;;;;;;4.17;3.00;;;;;;;;;;6283078;22;20248;-94
2021/12/04 07:33:20;;;;;;;7.73;4.27;;;;;;;;;;6285928;22;20172;-95
2021/12/04 07:35:49;;;;;;;14.70;7.97;;;;;;;;;;6280253;22;20182;-95
2021/12/04 07:38:16;;;;;;;18.43;9.50;;;;;;;;;;6280006;22;20193;-95
2021/12/04 07:40:44;;;;;;;6.53;3.70;;;;;;;;;;6280149;22;20176;-94
2021/12/04 07:43:11;;;;;;;4.17;3.43;;;;;;;;;;6280131;22;20177;-94
2021/12/04 07:45:39;;;;;;;5.80;3.80;;;;;;;;;;6280982;22;20203;-95
2021/12/04 07:48:06;;;;;;;6.87;4.27;;;;;;;;;;6280235;22;20172;-95
2021/12/04 07:50:34;;;;;;;6.20;4.10;;;;;;;;;;6280459;22;20173;-95
2021/12/04 07:53:03;;;;;;;6.43;4.60;;;;;;;;;;6280701;22;20647;-94
2021/12/04 07:55:30;;;;;;;12.00;7.37;;;;;;;;;;6281568;22;20181;-95
2021/12/04 07:57:59;;;;;;;8.73;3.83;;;;;;;;;;6281395;22;20177;-94
2021/12/04 08:00:27;;;;;;;5.50;3.33;;;;;;;;;;6281200;22;20255;-95
2021/12/04 08:02:54;;;;;;;4.27;3.57;;;;;;;;;;6282449;22;20203;-95
2021/12/04 08:05:28;;;;;;;14.90;7.80;;;;;;;;;;6282887;22;20192;-95
2021/12/04 08:07:56;;;;;;;7.40;4.37;;;;;;;;;;6283930;22;20175;-95
2021/12/04 08:10:25;;;;;;;7.63;3.27;;;;;;;;;;6283185;22;20255;-95
2021/12/04 08:12:52;;;;;;;3.17;2.70;;;;;;;;;;6283616;22;20234;-95
2021/12/04 08:15:19;;;;;;;3.93;3.60;;;;;;;;;;6283087;22;20179;-95
2021/12/04 08:17:47;;;;;;;4.10;3.23;;;;;;;;;;6282695;22;20199;-95
2021/12/04 08:20:15;;;;;;;4.67;3.43;;;;;;;;;;6283266;22;20201;-95
2021/12/04 08:22:42;;;;;;;7.03;4.57;;;;;;;;;;6284110;22;20678;-94
2021/12/04 08:25:10;;;;;;;7.93;4.60;;;;;;;;;;6284146;22;20193;-95
2021/12/04 08:27:46;;;;;;;7.33;4.80;;;;;;;;;;6282807;22;20563;-95
2021/12/04 08:30:15;;;;;;;5.93;4.47;;;;;;;;;;6283476;22;20196;-95
2021/12/04 08:32:42;;;;;;;5.77;4.03;;;;;;;;;;6283580;22;20173;-95
2021/12/04 08:35:18;;;;;;;6.20;3.50;;;;;;;;;;6282002;22;20173;-95
2021/12/04 08:37:46;;;;;;;6.77;3.73;;;;;;;;;;6282955;22;20180;-95
2021/12/04 08:40:15;;;;;;;6.13;3.67;;;;;;;;;;6283780;22;20223;-95
2021/12/04 08:42:42;;;;;;;5.23;3.77;;;;;;;;;;6283791;22;20184;-94
2021/12/04 08:45:12;;;;;;;6.30;3.33;;;;;;;;;;6283057;22;20196;-94
2021/12/04 08:47:39;;;;;;;6.53;4.07;;;;;;;;;;6282181;22;20177;-94
2021/12/04 08:50:07;;;;;;;5.53;3.47;;;;;;;;;;6281815;22;20196;-94
2021/12/04 08:52:34;;;;;;;3.23;2.93;;;;;;;;;;6281079;22;20183;-94
2021/12/04 08:55:02;;;;;;;7.20;5.07;;;;;;;;;;6281478;22;20165;-94
2021/12/04 08:57:29;;;;;;;5.67;4.80;;;;;;;;;;6282416;22;20176;-95
2021/12/04 08:59:58;;;;;;;11.90;6.50;;;;;;;;;;6281834;22;20196;-95
2021/12/04 09:02:27;;;;;;;7.23;4.90;;;;;;;;;;6281635;22;20172;-95
2021/12/04 09:04:57;;;;;;;6.60;5.13;;;;;;;;;;6281372;22;20659;-95
2021/12/04 09:07:25;;;;;;;16.03;8.17;;;;;;;;;;6282326;22;20175;-94
2021/12/04 09:09:55;;;;;;;9.20;5.20;;;;;;;;;;6279778;22;20297;-94
2021/12/04 09:12:23;;;;;;;6.40;4.47;;;;;;;;;;6283952;22;20673;-95
2021/12/04 09:14:51;;;;;;;5.97;3.90;;;;;;;;;;6285611;22;20226;-95
2021/12/04 09:17:19;;;;;;;5.30;3.90;;;;;;;;;;6284363;22;20185;-95
2021/12/04 09:19:48;;;;;;;8.60;4.30;;;;;;;;;;6283360;22;20204;-95
2021/12/04 09:22:16;;;;;;;5.67;3.80;;;;;;;;;;6283855;22;20173;-95
2021/12/04 09:24:49;;;;;;;4.80;3.97;;;;;;;;;;6284445;22;20223;-95
2021/12/04 09:27:35;;;;;;;4.90;4.00;;;;;;;;;;6285865;22;20536;-94
2021/12/04 09:30:16;;;;;;;4.63;3.57;;;;;;;;;;6282898;22;20199;-94
2021/12/04 10:20:44;;;;;;;8.43;6.53;;;;;;;;;;6284969;22;20169;-94
2021/12/04 10:34:26;;;;;;;6.73;5.00;;;;;;;;;;6210615;22;20173;-94
2021/12/04 10:36:56;;;;;;;6.50;4.97;;;;;;;;;;6283939;22;20176;-94
2021/12/04 10:39:24;;;;;;;11.57;6.03;;;;;;;;;;6282055;22;20197;-94
2021/12/04 10:41:56;;;;;;;11.00;7.00;;;;;;;;;;6280571;22;20231;-94
2021/12/04 10:44:25;;;;;;;10.77;6.07;;;;;;;;;;6281110;22;20176;-94
2021/12/04 10:46:54;;;;;;;7.20;4.77;;;;;;;;;;6281630;22;20230;-94
2021/12/04 10:49:34;;;;;;;5.33;4.80;;;;;;;;;;6282164;22;20201;-94
2021/12/04 10:52:04;;;;;;;7.73;4.30;;;;;;;;;;6282602;22;20168;-94
2021/12/04 10:54:38;;;;;;;8.87;5.33;;;;;;;;;;6282610;22;20172;-94
2021/12/04 10:57:50;;;;;;;5.87;4.53;;;;;;;;;;6284724;22;20204;-94
2021/12/04 11:00:22;;;;;;;6.23;4.97;;;;;;;;;;6283324;22;20203;-94
2021/12/04 11:02:52;;;;;;;6.87;4.67;;;;;;;;;;6283794;22;20187;-94
2021/12/04 11:05:44;;;;;;;5.13;3.70;;;;;;;;;;6279078;22;20246;-94
2021/12/04 11:19:33;;;;;;;8.27;4.87;;;;;;;;;;6278385;22;20646;-94
2021/12/04 11:22:18;;;;;;;4.90;4.40;;;;;;;;;;6278285;22;20176;-94
2021/12/04 11:27:53;;;;;;;16.07;9.03;;;;;;;;;;6278222;22;20501;-94
2021/12/04 11:38:46;;;;;;;7.40;4.33;;;;;;;;;;6245967;22;20272;-93
2021/12/04 11:41:26;;;;;;;8.40;4.73;;;;;;;;;;6277439;22;20183;-94
2021/12/04 11:44:03;;;;;;;6.27;5.33;;;;;;;;;;6276292;22;20248;-94
2021/12/04 11:46:43;;;;;;;6.27;5.00;;;;;;;;;;6277325;22;20242;-93
2021/12/04 11:49:12;;;;;;;8.53;6.00;;;;;;;;;;6276893;22;20196;-93
2021/12/04 11:51:55;;;;;;;8.80;5.47;;;;;;;;;;6275970;22;20240;-94
2021/12/04 11:54:23;;;;;;;13.70;9.37;;;;;;;;;;6276952;22;20181;-94
2021/12/04 11:56:58;;;;;;;6.37;5.23;;;;;;;;;;6276893;22;20187;-93
2021/12/04 11:59:27;;;;;;;14.47;9.70;;;;;;;;;;6276640;22;20214;-93
2021/12/04 12:02:00;;;;;;;16.47;11.27;;;;;;;;;;6276693;22;20604;-93
2021/12/04 12:04:33;;;;;;;13.63;9.20;;;;;;;;;;6277565;22;20176;-94
2021/12/04 12:07:10;;;;;;;7.77;6.27;;;;;;;;;;6276771;22;20234;-94
2021/12/04 12:09:39;;;;;;;11.40;7.40;;;;;;;;;;6276764;22;20203;-94
2021/12/04 12:12:08;;;;;;;8.93;6.77;;;;;;;;;;6276719;22;20180;-94
2021/12/04 12:14:38;;;;;;;8.97;6.23;;;;;;;;;;6277275;22;20173;-93
2021/12/04 12:17:08;;;;;;;8.37;6.60;;;;;;;;;;6282916;22;20226;-93
2021/12/04 12:22:39;;;;;;;10.73;5.70;;;;;;;;;;6276605;22;20173;-94
2021/12/04 12:25:24;;;;;;;11.33;5.70;;;;;;;;;;6276763;22;20655;-94
2021/12/04 12:31:43;;;;;;;9.80;6.57;;;;;;;;;;6276820;22;20171;-94
2021/12/04 12:33:35;;;;;;;9.40;6.73;;;;;;;;;;6277320;22;20203;-94
2021/12/04 12:36:03;;;;;;;8.03;5.67;;;;;;;;;;6276603;22;20543;-94
2021/12/04 12:38:36;;;;;;;8.80;6.53;;;;;;;;;;6278065;22;20197;-95
2021/12/04 12:41:07;;;;;;;9.67;7.23;;;;;;;;;;6278225;22;20238;-94
2021/12/04 12:43:36;;;;;;;11.07;6.53;;;;;;;;;;6282927;22;20185;-93
2021/12/04 12:46:06;;;;;;;7.77;5.47;;;;;;;;;;6276370;22;20195;-94
2021/12/04 12:48:44;;;;;;;9.10;6.50;;;;;;;;;;6276771;22;20213;-94
2021/12/04 12:51:12;;;;;;;17.53;9.70;;;;;;;;;;6277558;22;20165;-94
2021/12/04 12:53:41;;;;;;;2.87;2.27;;;;;;;;;;6276861;22;20169;-95
2021/12/04 12:56:10;;;;;;;3.27;1.40;;;;;;;;;;6275604;22;20238;-94
2021/12/04 12:58:49;;;;;;;1.30;0.70;;;;;;;;;;6276081;22;20623;-94
2021/12/04 13:12:48;;;;;;;0.90;0.77;;;;;;;;;;6276355;22;20156;-94
2021/12/04 13:15:17;;;;;;;0.80;0.80;;;;;;;;;;6275140;22;20175;-94
2021/12/04 13:17:44;;;;;;;0.90;0.70;;;;;;;;;;6276413;22;20195;-94
2021/12/04 13:20:13;;;;;;;1.73;0.63;;;;;;;;;;6275877;22;20581;-93
2021/12/04 13:22:40;;;;;;;0.63;0.63;;;;;;;;;;6275597;22;20242;-94
2021/12/04 13:25:26;;;;;;;1.10;1.00;;;;;;;;;;6275313;22;20227;-93
2021/12/04 13:30:20;;;;;;;1.90;0.80;;;;;;;;;;6275764;22;20250;-94
2021/12/04 13:32:47;;;;;;;0.90;0.90;;;;;;;;;;6275601;22;20180;-94
2021/12/04 13:35:20;;;;;;;2.47;0.93;;;;;;;;;;6275776;22;20168;-94
2021/12/04 13:37:48;;;;;;;1.33;0.60;;;;;;;;;;6275564;22;20179;-93
2021/12/04 13:40:16;;;;;;;0.90;0.90;;;;;;;;;;6275741;22;20196;-93
2021/12/04 13:42:44;;;;;;;1.10;1.00;;;;;;;;;;6276001;22;20176;-93
2021/12/04 13:45:14;;;;;;;1.00;0.90;;;;;;;;;;6275834;22;20204;-94
2021/12/04 13:47:42;;;;;;;1.13;0.60;;;;;;;;;;6276370;22;20180;-94
2021/12/04 13:52:55;;;;;;;0.70;0.70;;;;;;;;;;6296525;22;20186;-93
2021/12/04 13:55:23;;;;;;;0.60;0.60;;;;;;;;;;6301858;22;20160;-93
2021/12/04 13:57:51;;;;;;;0.60;0.60;;;;;;;;;;6300329;22;20247;-93
2021/12/04 14:00:19;;;;;;;1.00;0.90;;;;;;;;;;6302227;22;20245;-93
2021/12/04 14:02:47;;;;;;;1.00;0.90;;;;;;;;;;6297355;22;20172;-93
2021/12/04 14:05:15;;;;;;;2.70;1.50;;;;;;;;;;6277539;22;20177;-93
2021/12/04 14:07:47;;;;;;;0.80;0.80;;;;;;;;;;6275695;22;20183;-94
2021/12/04 14:10:27;;;;;;;0.90;0.90;;;;;;;;;;6271247;22;20197;-93
2021/12/04 14:12:59;;;;;;;0.70;0.70;;;;;;;;;;6272935;22;20173;-94
2021/12/04 14:15:36;;;;;;;2.20;1.43;;;;;;;;;;6273296;22;20180;-94
2021/12/04 14:18:14;;;;;;;1.10;1.00;;;;;;;;;;6271846;22;20173;-94
2021/12/04 14:20:42;;;;;;;0.83;0.80;;;;;;;;;;6273259;22;20191;-94
2021/12/04 14:23:10;;;;;;;1.03;0.87;;;;;;;;;;6272864;22;20184;-94
2021/12/04 14:25:46;;;;;;;2.07;1.13;;;;;;;;;;6272133;22;20188;-93
2021/12/04 14:28:22;;;;;;;1.30;1.20;;;;;;;;;;6274335;22;20172;-94
2021/12/04 14:30:50;;;;;;;1.63;0.93;;;;;;;;;;6277818;22;20220;-95
2021/12/04 14:33:20;;;;;;;0.93;0.93;;;;;;;;;;6276994;22;20177;-94
2021/12/04 14:35:49;;;;;;;1.47;1.17;;;;;;;;;;6282861;22;20179;-95
2021/12/04 14:38:17;;;;;;;1.43;1.03;;;;;;;;;;6279240;22;20193;-95
2021/12/04 14:40:47;;;;;;;0.97;0.97;;;;;;;;;;6280954;22;20188;-95
2021/12/04 14:43:16;;;;;;;0.80;0.80;;;;;;;;;;6283858;22;20177;-95
2021/12/04 14:45:47;;;;;;;1.73;0.80;;;;;;;;;;6283614;22;20196;-95
2021/12/04 14:48:17;;;;;;;0.90;0.90;;;;;;;;;;6282741;22;20172;-94
2021/12/04 14:50:45;;;;;;;0.80;0.80;;;;;;;;;;6282291;22;20172;-94
2021/12/04 14:53:14;;;;;;;2.30;1.23;;;;;;;;;;6281424;22;20185;-95
2021/12/04 14:55:43;;;;;;;0.90;0.90;;;;;;;;;;6282214;22;20184;-95
2021/12/04 14:58:13;;;;;;;0.57;0.57;;;;;;;;;;6284730;22;20579;-94
2021/12/04 15:00:42;;;;;;;0.80;0.80;;;;;;;;;;6282927;22;20183;-93
2021/12/04 15:03:11;;;;;;;1.37;0.80;;;;;;;;;;6282580;22;20184;-94
2021/12/04 15:05:39;;;;;;;0.73;0.73;;;;;;;;;;6280120;22;20196;-94
2021/12/04 15:08:10;;;;;;;1.57;1.10;;;;;;;;;;6281048;22;20179;-94
2021/12/04 15:10:38;;;;;;;3.97;1.60;;;;;;;;;;6283687;22;20570;-94
2021/12/04 15:13:07;;;;;;;0.87;0.80;;;;;;;;;;6282654;22;20172;-94
2021/12/04 15:15:37;;;;;;;1.57;1.30;;;;;;;;;;6281286;22;20188;-94
2021/12/04 15:18:09;;;;;;;4.20;1.73;;;;;;;;;;6277779;22;20257;-93
2021/12/04 15:20:42;;;;;;;3.27;1.87;;;;;;;;;;6277717;22;20183;-93
2021/12/04 15:23:13;;;;;;;3.03;1.73;;;;;;;;;;6277191;22;20173;-93
2021/12/04 15:25:44;;;;;;;2.90;1.67;;;;;;;;;;6276832;22;20172;-93
2021/12/04 15:28:16;;;;;;;2.20;1.13;;;;;;;;;;6277305;22;20584;-93
2021/12/04 15:30:47;;;;;;;1.00;1.00;;;;;;;;;;6276728;22;20239;-93
2021/12/04 15:33:22;;;;;;;1.20;1.00;;;;;;;;;;6277174;22;20172;-94
2021/12/04 15:35:51;;;;;;;1.03;1.00;;;;;;;;;;6277455;22;20175;-93
2021/12/04 15:38:23;;;;;;;1.20;0.80;;;;;;;;;;6277194;22;20799;-93
2021/12/04 15:41:27;;;;;;;1.63;1.53;;;;;;;;;;6276526;22;20179;-93
2021/12/04 15:44:03;;;;;;;0.63;0.63;;;;;;;;;;6276228;22;20180;-93
2021/12/04 15:46:40;;;;;;;0.70;0.70;;;;;;;;;;6276827;22;20839;-93
2021/12/04 15:55:02;;;;;;;0.67;0.60;;;;;;;;;;6276392;22;20615;-93
2021/12/04 15:57:29;;;;;;;2.13;1.20;;;;;;;;;;6276837;22;20176;-93
2021/12/04 15:59:58;;;;;;;0.80;0.80;;;;;;;;;;6275241;22;20219;-93
2021/12/04 16:02:34;;;;;;;1.00;0.90;;;;;;;;;;6276722;22;20183;-93
2021/12/04 16:05:05;;;;;;;1.40;1.20;;;;;;;;;;6276246;22;20657;-93
2021/12/04 16:07:33;;;;;;;1.17;0.97;;;;;;;;;;6275180;22;20578;-93
2021/12/04 16:10:04;;;;;;;3.53;1.30;;;;;;;;;;6276025;22;20200;-93
2021/12/04 16:12:31;;;;;;;3.30;1.03;;;;;;;;;;6276443;22;20199;-92
2021/12/04 16:14:59;;;;;;;1.23;1.00;;;;;;;;;;6276093;22;20176;-93
2021/12/04 16:17:27;;;;;;;3.20;2.43;;;;;;;;;;6275744;22;20173;-93
2021/12/04 16:20:04;;;;;;;3.17;2.40;;;;;;;;;;6277138;22;20196;-93
2021/12/04 16:22:36;;;;;;;1.53;1.43;;;;;;;;;;6276119;22;20515;-93
2021/12/04 16:25:05;;;;;;;2.97;1.73;;;;;;;;;;6275694;22;20176;-93
2021/12/04 16:27:37;;;;;;;1.63;1.50;;;;;;;;;;6275705;22;20663;-92
2021/12/04 16:30:23;;;;;;;1.60;1.30;;;;;;;;;;6276351;22;20554;-92
2021/12/04 16:33:00;;;;;;;2.00;1.80;;;;;;;;;;6275374;22;20208;-93
2021/12/04 16:35:40;;;;;;;1.27;1.23;;;;;;;;;;6275998;22;20692;-92
2021/12/04 16:38:09;;;;;;;1.00;1.00;;;;;;;;;;6276126;22;20168;-93
2021/12/04 16:40:37;;;;;;;1.53;1.10;;;;;;;;;;6275225;22;20878;-93
2021/12/04 16:43:09;;;;;;;1.07;0.90;;;;;;;;;;6275938;22;20176;-92
2021/12/04 16:45:37;;;;;;;0.70;0.70;;;;;;;;;;6275877;22;20504;-93
2021/12/04 16:48:07;;;;;;;0.60;0.60;;;;;;;;;;6275909;22;20640;-93
2021/12/04 16:54:48;;;;;;;0.70;0.70;;;;;;;;;;6275307;22;20177;-93
2021/12/04 16:56:25;;;;;;;0.90;0.90;;;;;;;;;;6275885;22;20229;-93
2021/12/04 16:58:53;;;;;;;1.03;0.97;;;;;;;;;;6274787;22;20254;-93
2021/12/04 17:01:20;;;;;;;0.73;0.73;;;;;;;;;;6275744;22;20176;-92
2021/12/04 17:03:49;;;;;;;0.70;0.70;;;;;;;;;;6275810;22;20230;-92
2021/12/04 17:06:17;;;;;;;0.47;0.47;;;;;;;;;;6274493;22;20197;-93
2021/12/04 17:08:44;;;;;;;0.97;0.70;;;;;;;;;;6275514;22;20264;-93
2021/12/04 17:11:11;;;;;;;0.87;0.70;;;;;;;;;;6275793;22;20176;-92
2021/12/04 17:13:39;;;;;;;0.70;0.70;;;;;;;;;;6276130;22;20180;-92
2021/12/04 17:16:06;;;;;;;2.63;0.57;;;;;;;;;;6274113;22;20215;-92
2021/12/04 17:18:39;;;;;;;0.60;0.60;;;;;;;;;;6282757;22;20226;-93
2021/12/04 17:21:08;;;;;;;0.97;0.77;;;;;;;;;;6276325;22;20176;-93
2021/12/04 17:23:35;;;;;;;0.70;0.70;;;;;;;;;;6275626;22;20177;-93
2021/12/04 17:26:02;;;;;;;0.60;0.60;;;;;;;;;;6274117;22;20176;-92
2021/12/04 17:28:35;;;;;;;0.53;0.53;;;;;;;;;;6275314;22;20196;-92
2021/12/04 17:31:02;;;;;;;0.80;0.60;;;;;;;;;;6276166;22;20202;-92
2021/12/04 17:33:30;;;;;;;0.70;0.70;;;;;;;;;;6274658;22;20176;-92
2021/12/04 17:35:57;;;;;;;0.70;0.70;;;;;;;;;;6275101;22;20177;-91
2021/12/04 17:38:26;;;;;;;0.87;0.80;;;;;;;;;;6275319;22;20270;-93
2021/12/04 17:40:53;;;;;;;1.07;0.60;;;;;;;;;;6276113;22;20176;-92
2021/12/04 17:43:21;;;;;;;0.83;0.83;;;;;;;;;;6274337;22;20172;-91